| time (UTC) | temp C | wind direction | speed KPH | gust KPH | rain 1hr cm | rain 24hr cm | rain mn cm | humidity % | barometer mb |
| 20260506103611 | 15 | 289 | 0.0 | 0.0 | 0.00 | 0.00 | 0.00 | 98 | 1015.6 |
| 20260506103108 | 15 | 269 | 0.0 | 1.6 | 0.00 | 0.00 | 0.00 | 98 | 1015.8 |
| 20260506102606 | 15 | 280 | 0.0 | 0.0 | 0.00 | 0.00 | 0.00 | 98 | 1015.7 |
| 20260506102103 | 15 | 251 | 0.0 | 0.0 | 0.00 | 0.00 | 0.00 | 98 | 1015.7 |
| 20260506101600 | 15 | 268 | 0.0 | 0.0 | 0.00 | 0.00 | 0.00 | 99 | 1015.3 |
| 20260506101057 | 15 | 287 | 0.0 | 0.0 | 0.00 | 0.00 | 0.00 | 98 | 1015.4 |
| 20260506100555 | 15 | 280 | 0.0 | 0.0 | 0.00 | 0.00 | 0.00 | 99 | 1015.3 |
| 20260506100053 | 15 | 274 | 0.0 | 0.0 | 0.00 | 0.00 | 0.00 | 98 | 1015.1 |
| 20260506095551 | 15 | 275 | 0.0 | 0.0 | 0.00 | 0.00 | 0.00 | 98 | 1015.4 |
| 20260506095047 | 15 | 258 | 0.0 | 0.0 | 0.00 | 0.00 | 0.00 | 98 | 1015.4 |
| 20260506094545 | 15 | 286 | 0.0 | 0.0 | 0.00 | 0.00 | 0.00 | 98 | 1015.3 |
| 20260506094043 | 15 | 263 | 0.0 | 0.0 | 0.00 | 0.00 | 0.00 | 98 | 1015.2 |
| 20260506093541 | 15 | 270 | 0.0 | 1.6 | 0.00 | 0.00 | 0.00 | 98 | 1015.4 |
| 20260506093038 | 15 | 155 | 1.6 | 1.6 | 0.00 | 0.00 | 0.00 | 98 | 1015.2 |
| 20260506092536 | 15 | 329 | 0.0 | 0.0 | 0.00 | 0.00 | 0.00 | 98 | 1015.2 |
| 20260506092032 | 15 | 279 | 0.0 | 0.0 | 0.00 | 0.00 | 0.00 | 98 | 1015.3 |
| 20260506091531 | 15 | 227 | 1.6 | 1.6 | 0.00 | 0.00 | 0.00 | 98 | 1015.3 |
| 20260506091028 | 14 | 284 | 0.0 | 0.0 | 0.00 | 0.00 | 0.00 | 98 | 1015.4 |
| 20260506090526 | 15 | 290 | 0.0 | 0.0 | 0.00 | 0.00 | 0.00 | 98 | 1015.4 |
| 20260506090022 | 15 | 284 | 0.0 | 0.0 | 0.00 | 0.00 | 0.00 | 98 | 1015.3 |
| 20260506085519 | 15 | 243 | 1.6 | 1.6 | 0.00 | 0.00 | 0.00 | 98 | 1015.3 |
| 20260506085015 | 15 | 222 | 1.6 | 1.6 | 0.00 | 0.00 | 0.00 | 98 | 1015.3 |
| 20260506084512 | 15 | 210 | 1.6 | 1.6 | 0.00 | 0.00 | 0.00 | 98 | 1015.1 |
| 20260506084008 | 15 | 164 | 3.2 | 3.2 | 0.00 | 0.00 | 0.00 | 98 | 1014.9 |
| 20260506083506 | 14 | 135 | 1.6 | 3.2 | 0.00 | 0.00 | 0.00 | 98 | 1015.1 |
| 20260506083003 | 14 | 190 | 1.6 | 1.6 | 0.00 | 0.00 | 0.00 | 98 | 1015.2 |
| 20260506082500 | 14 | 216 | 1.6 | 1.6 | 0.00 | 0.00 | 0.00 | 98 | 1015.2 |
| 20260506081955 | 14 | 189 | 1.6 | 3.2 | 0.00 | 0.00 | 0.00 | 98 | 1015.1 |
| 20260506081454 | 14 | 217 | 0.0 | 0.0 | 0.00 | 0.00 | 0.00 | 98 | 1015.5 |
| 20260506080951 | 14 | 249 | 0.0 | 0.0 | 0.00 | 0.00 | 0.00 | 98 | 1015.5 |
| 20260506080448 | 14 | 255 | 0.0 | 0.0 | 0.00 | 0.00 | 0.00 | 98 | 1015.7 |
| 20260506073431 | 15 | 150 | 1.6 | 1.6 | 0.00 | 0.00 | 0.00 | 97 | 1015.4 |
| 20260506072929 | 15 | 258 | 0.0 | 0.0 | 0.00 | 0.00 | 0.00 | 97 | 1015.2 |
| 20260506072426 | 15 | 275 | 0.0 | 0.0 | 0.00 | 0.00 | 0.00 | 96 | 1015.4 |
| 20260506071924 | 15 | 224 | 0.0 | 1.6 | 0.00 | 0.00 | 0.00 | 96 | 1015.1 |
| 20260506071422 | 15 | 95 | 4.8 | 4.8 | 0.00 | 0.00 | 0.00 | 96 | 1015.2 |
| 20260506070918 | 15 | 177 | 3.2 | 3.2 | 0.00 | 0.00 | 0.00 | 96 | 1015.2 |
| 20260506070415 | 15 | 166 | 3.2 | 3.2 | 0.00 | 0.00 | 0.00 | 96 | 1015.2 |
| 20260506062352 | 15 | 153 | 1.6 | 3.2 | 0.00 | 0.00 | 0.00 | 95 | 1015.7 |
| 20260506061848 | 15 | 134 | 1.6 | 3.2 | 0.00 | 0.00 | 0.00 | 95 | 1015.6 |
| 20260506061345 | 15 | 166 | 1.6 | 3.2 | 0.00 | 0.00 | 0.00 | 95 | 1015.9 |
| 20260506060843 | 15 | 129 | 3.2 | 3.2 | 0.00 | 0.00 | 0.00 | 95 | 1015.8 |
| 20260506060341 | 15 | 232 | 1.6 | 1.6 | 0.00 | 0.00 | 0.00 | 94 | 1015.9 |
| 20260506051313 | 16 | 279 | 0.0 | 1.6 | 0.00 | 0.00 | 0.00 | 90 | 1016.5 |
| 20260506050810 | 16 | 248 | 1.6 | 1.6 | 0.00 | 0.00 | 0.00 | 90 | 1016.6 |
| 20260506050308 | 16 | 220 | 1.6 | 1.6 | 0.00 | 0.00 | 0.00 | 90 | 1016.3 |
| 20260506044758 | 16 | 156 | 4.8 | 4.8 | 0.00 | 0.00 | 0.00 | 88 | 1016.7 |
| 20260506044256 | 16 | 143 | 4.8 | 8.0 | 0.00 | 0.00 | 0.00 | 88 | 1016.8 |
| 20260506043753 | 16 | 184 | 1.6 | 3.2 | 0.00 | 0.00 | 0.00 | 88 | 1016.8 |
| 20260506043250 | 16 | 167 | 3.2 | 3.2 | 0.00 | 0.00 | 0.00 | 88 | 1016.8 |
| 20260506042749 | 16 | 172 | 3.2 | 3.2 | 0.00 | 0.00 | 0.00 | 88 | 1016.9 |
| 20260506042247 | 16 | 170 | 3.2 | 3.2 | 0.00 | 0.00 | 0.00 | 87 | 1017.0 |
| 20260506041745 | 16 | 162 | 1.6 | 3.2 | 0.00 | 0.00 | 0.00 | 87 | 1017.0 |
| 20260506041242 | 17 | 178 | 3.2 | 3.2 | 0.00 | 0.00 | 0.00 | 86 | 1017.0 |
| 20260506040739 | 17 | 166 | 3.2 | 3.2 | 0.00 | 0.00 | 0.00 | 86 | 1016.9 |
| 20260506040236 | 17 | 173 | 4.8 | 4.8 | 0.00 | 0.00 | 0.00 | 86 | 1017.1 |
| 20260506035733 | 17 | 182 | 4.8 | 4.8 | 0.00 | 0.00 | 0.00 | 85 | 1017.1 |
| 20260506035230 | 17 | 186 | 4.8 | 4.8 | 0.00 | 0.00 | 0.00 | 85 | 1016.9 |
| 20260506034727 | 17 | 169 | 3.2 | 4.8 | 0.00 | 0.00 | 0.00 | 84 | 1017.1 |
| 20260506034224 | 17 | 195 | 4.8 | 4.8 | 0.00 | 0.00 | 0.00 | 84 | 1017.1 |
| 20260506033721 | 17 | 157 | 4.8 | 4.8 | 0.00 | 0.00 | 0.00 | 84 | 1017.3 |
| 20260506033218 | 17 | 194 | 1.6 | 1.6 | 0.00 | 0.00 | 0.00 | 83 | 1016.9 |
| 20260506032715 | 17 | 191 | 4.8 | 4.8 | 0.00 | 0.00 | 0.00 | 83 | 1017.0 |
| 20260506032212 | 17 | 166 | 3.2 | 3.2 | 0.00 | 0.00 | 0.00 | 83 | 1016.9 |
| 20260506031708 | 17 | 140 | 6.4 | 8.0 | 0.00 | 0.00 | 0.00 | 82 | 1016.9 |
| 20260506031206 | 17 | 177 | 8.0 | 8.0 | 0.00 | 0.00 | 0.00 | 82 | 1017.0 |
| 20260506030704 | 17 | 194 | 3.2 | 3.2 | 0.00 | 0.00 | 0.00 | 82 | 1017.2 |
| 20260506030201 | 17 | 194 | 3.2 | 3.2 | 0.00 | 0.00 | 0.00 | 82 | 1017.2 |
| 20260506025658 | 17 | 186 | 6.4 | 8.0 | 0.00 | 0.00 | 0.00 | 82 | 1017.0 |
| 20260506025154 | 17 | 191 | 4.8 | 4.8 | 0.00 | 0.00 | 0.00 | 82 | 1017.0 |
| 20260506024652 | 17 | 174 | 4.8 | 4.8 | 0.00 | 0.00 | 0.00 | 82 | 1017.0 |
| 20260506024148 | 17 | 195 | 4.8 | 4.8 | 0.00 | 0.00 | 0.00 | 81 | 1016.9 |
| 20260506023644 | 17 | 181 | 3.2 | 3.2 | 0.00 | 0.00 | 0.00 | 81 | 1017.1 |
| 20260506023141 | 17 | 176 | 4.8 | 8.0 | 0.00 | 0.00 | 0.00 | 82 | 1016.9 |
| 20260506022639 | 17 | 151 | 4.8 | 4.8 | 0.00 | 0.00 | 0.00 | 81 | 1016.9 |
| 20260506022136 | 17 | 168 | 4.8 | 8.0 | 0.00 | 0.00 | 0.00 | 81 | 1017.1 |
| 20260506021634 | 17 | 189 | 4.8 | 4.8 | 0.00 | 0.00 | 0.00 | 81 | 1016.9 |
| 20260506021131 | 17 | 172 | 4.8 | 4.8 | 0.00 | 0.00 | 0.00 | 80 | 1017.0 |
| 20260506020628 | 18 | 175 | 3.2 | 3.2 | 0.00 | 0.00 | 0.00 | 80 | 1017.0 |
| 20260506020125 | 18 | 228 | 4.8 | 4.8 | 0.00 | 0.00 | 0.00 | 80 | 1017.2 |
| 20260506015623 | 18 | 183 | 4.8 | 4.8 | 0.00 | 0.00 | 0.00 | 79 | 1016.9 |
| 20260506015119 | 18 | 220 | 3.2 | 3.2 | 0.00 | 0.00 | 0.00 | 78 | 1016.8 |
| 20260506014617 | 18 | 116 | 4.8 | 4.8 | 0.00 | 0.00 | 0.00 | 78 | 1016.8 |
| 20260506014112 | 18 | 157 | 8.0 | 11.3 | 0.00 | 0.00 | 0.00 | 77 | 1016.8 |
| 20260506013611 | 18 | 172 | 4.8 | 8.0 | 0.00 | 0.00 | 0.00 | 78 | 1016.5 |
| 20260506013107 | 18 | 128 | 6.4 | 11.3 | 0.00 | 0.00 | 0.00 | 77 | 1016.8 |
| 20260506012604 | 18 | 187 | 8.0 | 9.7 | 0.00 | 0.00 | 0.00 | 77 | 1016.8 |
| 20260506012100 | 18 | 187 | 6.4 | 11.3 | 0.00 | 0.00 | 0.00 | 77 | 1016.7 |
| 20260506011558 | 19 | 124 | 6.4 | 11.3 | 0.00 | 0.00 | 0.00 | 76 | 1016.7 |
| 20260506011048 | 19 | 255 | 6.4 | 8.0 | 0.00 | 0.00 | 0.00 | 76 | 1016.8 |
| 20260506010548 | 19 | 183 | 6.4 | 8.0 | 0.00 | 0.00 | 0.00 | 75 | 1016.4 |
| 20260506010044 | 19 | 183 | 6.4 | 8.0 | 0.00 | 0.00 | 0.00 | 75 | 1016.4 |
| 20260506005541 | 19 | 151 | 12.9 | 16.1 | 0.00 | 0.00 | 0.00 | 75 | 1016.4 |
| 20260506005037 | 19 | 159 | 6.4 | 8.0 | 0.00 | 0.00 | 0.00 | 75 | 1016.2 |
| 20260506004535 | 20 | 161 | 11.3 | 14.5 | 0.00 | 0.00 | 0.00 | 75 | 1016.3 |
| 20260506004031 | 20 | 199 | 11.3 | 14.5 | 0.00 | 0.00 | 0.00 | 74 | 1016.3 |
| 20260506003528 | 20 | 199 | 8.0 | 11.3 | 0.00 | 0.00 | 0.00 | 74 | 1016.2 |
| 20260506003024 | 20 | 150 | 6.4 | 8.0 | 0.00 | 0.00 | 0.00 | 74 | 1016.1 |
| 20260506002520 | 20 | 122 | 8.0 | 12.9 | 0.00 | 0.00 | 0.00 | 73 | 1016.3 |
| 20260506002016 | 20 | 212 | 6.4 | 8.0 | 0.00 | 0.00 | 0.00 | 74 | 1016.2 |
| 20260506001512 | 20 | 137 | 9.7 | 11.3 | 0.00 | 0.00 | 0.00 | 73 | 1016.1 |
| 20260506001010 | 20 | 181 | 9.7 | 9.7 | 0.00 | 0.00 | 0.00 | 73 | 1016.3 |
| 20260506000507 | 20 | 181 | 9.7 | 11.3 | 0.00 | 0.00 | 0.00 | 73 | 1016.3 |
| 20260506000004 | 20 | 174 | 6.4 | 8.0 | 0.00 | 0.00 | 0.00 | 73 | 1016.0 |
| 20260505235502 | 21 | 309 | 9.7 | 12.9 | 0.00 | 0.00 | 0.00 | 73 | 1016.0 |
| 20260505234958 | 21 | 109 | 6.4 | 8.0 | 0.00 | 0.00 | 0.00 | 73 | 1016.2 |
| 20260505234456 | 21 | 163 | 9.7 | 11.3 | 0.00 | 0.00 | 0.00 | 72 | 1016.0 |
| 20260505233952 | 21 | 103 | 9.7 | 11.3 | 0.00 | 0.00 | 0.00 | 72 | 1016.1 |
| 20260505233450 | 21 | 169 | 9.7 | 11.3 | 0.00 | 0.00 | 0.00 | 71 | 1015.8 |
| 20260505232947 | 21 | 134 | 8.0 | 11.3 | 0.00 | 0.00 | 0.00 | 71 | 1016.2 |
| 20260505232445 | 21 | 158 | 16.1 | 20.9 | 0.00 | 0.00 | 0.00 | 71 | 1016.0 |
| 20260505231942 | 21 | 177 | 8.0 | 11.3 | 0.00 | 0.00 | 0.00 | 71 | 1015.9 |
| 20260505231439 | 22 | 175 | 9.7 | 11.3 | 0.00 | 0.00 | 0.00 | 70 | 1015.8 |
| 20260505230938 | 22 | 152 | 11.3 | 12.9 | 0.00 | 0.00 | 0.00 | 70 | 1015.9 |
| 20260505230435 | 22 | 170 | 11.3 | 14.5 | 0.00 | 0.00 | 0.00 | 69 | 1016.0 |
| 20260505225931 | 22 | 171 | 11.3 | 17.7 | 0.00 | 0.00 | 0.00 | 69 | 1016.1 |
| 20260505225428 | 22 | 140 | 14.5 | 16.1 | 0.00 | 0.00 | 0.00 | 69 | 1016.0 |
| 20260505224924 | 22 | 177 | 8.0 | 11.3 | 0.00 | 0.00 | 0.00 | 69 | 1016.1 |
| 20260505224421 | 22 | 212 | 12.9 | 14.5 | 0.00 | 0.00 | 0.00 | 68 | 1015.9 |
| 20260505223918 | 22 | 179 | 9.7 | 14.5 | 0.00 | 0.00 | 0.00 | 68 | 1016.2 |
| 20260505223415 | 22 | 152 | 12.9 | 16.1 | 0.00 | 0.00 | 0.00 | 68 | 1015.8 |
| 20260505222911 | 22 | 191 | 14.5 | 17.7 | 0.00 | 0.00 | 0.00 | 67 | 1016.0 |
| 20260505222408 | 23 | 184 | 17.7 | 25.7 | 0.00 | 0.00 | 0.00 | 67 | 1016.1 |
| 20260505221904 | 23 | 170 | 11.3 | 14.5 | 0.00 | 0.00 | 0.00 | 66 | 1015.9 |
| 20260505221401 | 23 | 157 | 11.3 | 12.9 | 0.00 | 0.00 | 0.00 | 66 | 1015.9 |
| 20260505220858 | 23 | 118 | 12.9 | 17.7 | 0.00 | 0.00 | 0.00 | 66 | 1016.0 |
| 20260505220355 | 23 | 181 | 12.9 | 17.7 | 0.00 | 0.00 | 0.00 | 65 | 1016.1 |
| 20260505215853 | 23 | 134 | 6.4 | 9.7 | 0.00 | 0.00 | 0.00 | 65 | 1015.8 |
| 20260505215351 | 23 | 176 | 14.5 | 17.7 | 0.00 | 0.00 | 0.00 | 65 | 1015.7 |
| 20260505214849 | 24 | 184 | 9.7 | 11.3 | 0.00 | 0.00 | 0.00 | 64 | 1015.8 |
| 20260505214346 | 24 | 152 | 11.3 | 14.5 | 0.00 | 0.00 | 0.00 | 64 | 1015.8 |
| 20260505213843 | 25 | 196 | 9.7 | 11.3 | 0.00 | 0.00 | 0.00 | 64 | 1015.7 |
| 20260505213341 | 25 | 175 | 14.5 | 17.7 | 0.00 | 0.00 | 0.00 | 63 | 1015.7 |
| 20260505212837 | 24 | 221 | 8.0 | 12.9 | 0.00 | 0.00 | 0.00 | 64 | 1015.6 |
| 20260505212334 | 24 | 161 | 9.7 | 14.5 | 0.00 | 0.00 | 0.00 | 65 | 1015.5 |
| 20260505211830 | 25 | 177 | 12.9 | 14.5 | 0.00 | 0.00 | 0.00 | 63 | 1015.7 |
| 20260505211328 | 25 | 199 | 8.0 | 9.7 | 0.00 | 0.00 | 0.00 | 63 | 1015.6 |
| 20260505210824 | 25 | 190 | 16.1 | 20.9 | 0.00 | 0.00 | 0.00 | 62 | 1015.6 |
| 20260505210321 | 25 | 189 | 9.7 | 12.9 | 0.00 | 0.00 | 0.00 | 62 | 1015.6 |
| 20260505205818 | 25 | 182 | 8.0 | 11.3 | 0.00 | 0.00 | 0.00 | 61 | 1015.8 |
| 20260505205316 | 25 | 190 | 11.3 | 12.9 | 0.00 | 0.00 | 0.00 | 60 | 1015.5 |
| 20260505204812 | 24 | 145 | 14.5 | 16.1 | 0.00 | 0.00 | 0.00 | 61 | 1015.5 |
| 20260505204311 | 25 | 151 | 14.5 | 20.9 | 0.00 | 0.00 | 0.00 | 60 | 1015.6 |
| 20260505203808 | 25 | 150 | 19.3 | 22.5 | 0.00 | 0.00 | 0.00 | 59 | 1015.5 |
| 20260505203304 | 25 | 150 | 11.3 | 20.9 | 0.00 | 0.00 | 0.00 | 59 | 1015.6 |
| 20260505202800 | 25 | 163 | 16.1 | 20.9 | 0.00 | 0.00 | 0.00 | 58 | 1015.5 |
| 20260505202256 | 25 | 184 | 6.4 | 8.0 | 0.00 | 0.00 | 0.00 | 59 | 1015.7 |
| 20260505201753 | 25 | 166 | 8.0 | 11.3 | 0.00 | 0.00 | 0.00 | 58 | 1015.9 |
| 20260505201251 | 25 | 114 | 9.7 | 12.9 | 0.00 | 0.00 | 0.00 | 58 | 1015.6 |
| 20260505200749 | 26 | 155 | 9.7 | 12.9 | 0.00 | 0.00 | 0.00 | 56 | 1015.8 |
| 20260505200246 | 26 | 118 | 14.5 | 17.7 | 0.00 | 0.00 | 0.00 | 56 | 1015.8 |
| 20260505195741 | 25 | 154 | 9.7 | 11.3 | 0.00 | 0.00 | 0.00 | 58 | 1015.9 |
| 20260505195239 | 25 | 237 | 8.0 | 12.9 | 0.00 | 0.00 | 0.00 | 58 | 1016.1 |
| 20260505194736 | 25 | 115 | 11.3 | 12.9 | 0.00 | 0.00 | 0.00 | 58 | 1016.1 |
| 20260505194232 | 25 | 104 | 12.9 | 16.1 | 0.00 | 0.00 | 0.00 | 57 | 1016.2 |
| 20260505193728 | 25 | 259 | 8.0 | 12.9 | 0.00 | 0.00 | 0.00 | 58 | 1016.3 |
| 20260505193226 | 25 | 182 | 9.7 | 12.9 | 0.00 | 0.00 | 0.00 | 57 | 1016.5 |
| 20260505192724 | 26 | 178 | 19.3 | 24.1 | 0.00 | 0.00 | 0.00 | 56 | 1016.4 |
| 20260505192221 | 25 | 178 | 8.0 | 11.3 | 0.00 | 0.00 | 0.00 | 58 | 1016.4 |
| 20260505191720 | 26 | 182 | 12.9 | 14.5 | 0.00 | 0.00 | 0.00 | 55 | 1016.5 |
| 20260505191218 | 26 | 159 | 11.3 | 14.5 | 0.00 | 0.00 | 0.00 | 54 | 1016.7 |
| 20260505190714 | 25 | 131 | 12.9 | 16.1 | 0.00 | 0.00 | 0.00 | 56 | 1016.6 |
| 20260505190213 | 25 | 171 | 9.7 | 11.3 | 0.00 | 0.00 | 0.00 | 58 | 1016.9 |
| 20260505185710 | 26 | 178 | 8.0 | 14.5 | 0.00 | 0.00 | 0.00 | 56 | 1016.8 |
| 20260505185207 | 25 | 179 | 11.3 | 14.5 | 0.00 | 0.00 | 0.00 | 58 | 1016.9 |
| 20260505184703 | 25 | 179 | 11.3 | 12.9 | 0.00 | 0.00 | 0.00 | 59 | 1016.7 |
| 20260505184200 | 26 | 174 | 4.8 | 8.0 | 0.00 | 0.00 | 0.00 | 55 | 1016.8 |
| 20260505183657 | 25 | 171 | 6.4 | 8.0 | 0.00 | 0.00 | 0.00 | 55 | 1016.7 |
| 20260505183155 | 25 | 88 | 8.0 | 9.7 | 0.00 | 0.00 | 0.00 | 58 | 1017.1 |
| 20260505182650 | 25 | 195 | 12.9 | 14.5 | 0.00 | 0.00 | 0.00 | 58 | 1017.0 |
| 20260505182148 | 25 | 190 | 9.7 | 11.3 | 0.00 | 0.00 | 0.00 | 56 | 1016.9 |
| 20260505181644 | 26 | 241 | 8.0 | 12.9 | 0.00 | 0.00 | 0.00 | 56 | 1017.0 |
| 20260505181142 | 25 | 165 | 4.8 | 8.0 | 0.00 | 0.00 | 0.00 | 56 | 1017.0 |
| 20260505180638 | 25 | 169 | 11.3 | 14.5 | 0.00 | 0.00 | 0.00 | 56 | 1017.1 |
| 20260505180135 | 26 | 198 | 9.7 | 12.9 | 0.00 | 0.00 | 0.00 | 55 | 1017.0 |
| 20260505175631 | 26 | 162 | 8.0 | 9.7 | 0.00 | 0.00 | 0.00 | 55 | 1017.1 |
| 20260505175128 | 26 | 159 | 9.7 | 11.3 | 0.00 | 0.00 | 0.00 | 54 | 1017.2 |
| 20260505174624 | 26 | 183 | 9.7 | 12.9 | 0.00 | 0.00 | 0.00 | 51 | 1017.1 |
| 20260505174120 | 25 | 175 | 11.3 | 12.9 | 0.00 | 0.00 | 0.00 | 54 | 1017.3 |
| 20260505173617 | 25 | 169 | 12.9 | 16.1 | 0.00 | 0.00 | 0.00 | 56 | 1017.5 |
| 20260505173114 | 25 | 157 | 9.7 | 11.3 | 0.00 | 0.00 | 0.00 | 58 | 1017.2 |
| 20260505172612 | 25 | 123 | 8.0 | 9.7 | 0.00 | 0.00 | 0.00 | 58 | 1017.5 |
| 20260505172108 | 25 | 185 | 3.2 | 8.0 | 0.00 | 0.00 | 0.00 | 55 | 1017.4 |
| 20260505171603 | 25 | 181 | 9.7 | 12.9 | 0.00 | 0.00 | 0.00 | 58 | 1017.2 |
| 20260505171100 | 24 | 159 | 9.7 | 16.1 | 0.00 | 0.00 | 0.00 | 59 | 1017.3 |
| 20260505170557 | 25 | 194 | 8.0 | 12.9 | 0.00 | 0.00 | 0.00 | 58 | 1017.3 |
| 20260505170053 | 25 | 181 | 11.3 | 14.5 | 0.00 | 0.00 | 0.00 | 58 | 1017.4 |
| 20260505165548 | 26 | 188 | 9.7 | 14.5 | 0.00 | 0.00 | 0.00 | 57 | 1017.3 |
| 20260505165045 | 25 | 173 | 9.7 | 11.3 | 0.00 | 0.00 | 0.00 | 58 | 1017.5 |
| 20260505164540 | 25 | 161 | 11.3 | 12.9 | 0.00 | 0.00 | 0.00 | 59 | 1017.6 |
| 20260505164038 | 25 | 116 | 8.0 | 11.3 | 0.00 | 0.00 | 0.00 | 60 | 1017.5 |
| 20260505163537 | 25 | 151 | 16.1 | 17.7 | 0.00 | 0.00 | 0.00 | 58 | 1017.8 |
| 20260505163033 | 26 | 162 | 9.7 | 16.1 | 0.00 | 0.00 | 0.00 | 57 | 1017.7 |
| 20260505162521 | 25 | 201 | 4.8 | 4.8 | 0.00 | 0.00 | 0.00 | 60 | 1017.6 |
| 20260505162018 | 24 | 182 | 8.0 | 11.3 | 0.00 | 0.00 | 0.00 | 63 | 1017.8 |
| 20260505161514 | 25 | 165 | 11.3 | 12.9 | 0.00 | 0.00 | 0.00 | 59 | 1017.9 |
| 20260505161012 | 25 | 227 | 6.4 | 8.0 | 0.00 | 0.00 | 0.00 | 61 | 1017.9 |
| 20260505160510 | 25 | 97 | 6.4 | 8.0 | 0.00 | 0.00 | 0.00 | 61 | 1018.0 |
| 20260505152946 | 24 | 181 | 9.7 | 11.3 | 0.00 | 0.00 | 0.00 | 58 | 1018.4 |
| 20260505152443 | 23 | 16 | 3.2 | 4.8 | 0.00 | 0.00 | 0.00 | 60 | 1018.3 |
| 20260505151938 | 23 | 169 | 11.3 | 11.3 | 0.00 | 0.00 | 0.00 | 60 | 1018.3 |
| 20260505151433 | 25 | 172 | 9.7 | 14.5 | 0.00 | 0.00 | 0.00 | 60 | 1018.2 |
| 20260505150931 | 23 | 273 | 3.2 | 4.8 | 0.00 | 0.00 | 0.00 | 64 | 1018.3 |
| 20260505150428 | 25 | 253 | 6.4 | 9.7 | 0.00 | 0.00 | 0.00 | 59 | 1018.4 |
| 20260505140358 | 22 | 221 | 6.4 | 8.0 | 0.00 | 0.00 | 0.00 | 70 | 1018.6 |
| 20260505124811 | 19 | 190 | 6.4 | 9.7 | 0.00 | 0.00 | 0.00 | 80 | 1018.5 |
| 20260505124308 | 19 | 190 | 6.4 | 9.7 | 0.00 | 0.00 | 0.00 | 80 | 1018.5 |
| 20260505123804 | 18 | 159 | 4.8 | 4.8 | 0.00 | 0.00 | 0.00 | 81 | 1018.6 |
| 20260505123301 | 18 | 190 | 4.8 | 8.0 | 0.00 | 0.00 | 0.00 | 82 | 1018.4 |
| 20260505122757 | 18 | 197 | 4.8 | 4.8 | 0.00 | 0.00 | 0.00 | 84 | 1018.4 |
| 20260505122255 | 17 | 153 | 3.2 | 3.2 | 0.00 | 0.00 | 0.00 | 85 | 1018.2 |
| 20260505121751 | 17 | 186 | 3.2 | 3.2 | 0.00 | 0.00 | 0.00 | 85 | 1018.4 |
| 20260505121248 | 16 | 158 | 4.8 | 4.8 | 0.00 | 0.00 | 0.00 | 87 | 1018.3 |
| 20260505120744 | 16 | 176 | 3.2 | 4.8 | 0.00 | 0.00 | 0.00 | 88 | 1018.3 |
| 20260505120240 | 15 | 209 | 8.0 | 9.7 | 0.00 | 0.00 | 0.00 | 89 | 1018.4 |
| 20260505115739 | 15 | 171 | 4.8 | 4.8 | 0.00 | 0.00 | 0.00 | 91 | 1018.0 |
| 20260505115237 | 14 | 150 | 4.8 | 4.8 | 0.00 | 0.00 | 0.00 | 92 | 1018.1 |
| 20260505114734 | 13 | 187 | 4.8 | 4.8 | 0.00 | 0.00 | 0.00 | 94 | 1018.3 |
| 20260505114230 | 13 | 176 | 4.8 | 4.8 | 0.00 | 0.00 | 0.00 | 94 | 1017.9 |
| 20260505113727 | 13 | 184 | 3.2 | 3.2 | 0.00 | 0.00 | 0.00 | 95 | 1018.3 |
| 20260505113223 | 12 | 228 | 1.6 | 3.2 | 0.00 | 0.00 | 0.00 | 97 | 1017.8 |
| 20260505112720 | 12 | 176 | 3.2 | 3.2 | 0.00 | 0.00 | 0.00 | 97 | 1018.0 |
| 20260505112218 | 11 | 239 | 1.6 | 1.6 | 0.00 | 0.00 | 0.00 | 98 | 1018.0 |
| 20260505111717 | 11 | 251 | 0.0 | 0.0 | 0.00 | 0.00 | 0.00 | 98 | 1018.0 |
| 20260505111214 | 11 | 233 | 0.0 | 0.0 | 0.00 | 0.00 | 0.00 | 98 | 1017.9 |
| 20260505110709 | 11 | 273 | 0.0 | 0.0 | 0.00 | 0.00 | 0.00 | 98 | 1017.8 |
| 20260505110207 | 10 | 268 | 0.0 | 0.0 | 0.00 | 0.00 | 0.00 | 98 | 1017.7 |